Time;durP1;ratioP1;P1;durP2;ratioP2;P2;SDS_P1;SDS_P2;PMS_P1;PMS_P2;Temp;Humidity;BMP_temperature;BMP_pressure;BME280_temperature;BME280_humidity;BME280_pressure;Samples;Min_cycle;Max_cycle;Signal;HPM_P1;HPM_P2
2024/03/23 00:01:23;;;;;;;2.20;1.77;;;16.00;99.90;;;;;;5008097;28;20404;-82
2024/03/23 00:03:50;;;;;;;2.25;1.38;;;16.10;99.90;;;;;;4983207;28;20396;-81
2024/03/23 00:06:17;;;;;;;3.08;1.73;;;15.50;99.90;;;;;;5000698;28;20422;-82
2024/03/23 00:08:44;;;;;;;1.83;1.63;;;15.60;99.90;;;;;;5011014;28;20395;-82
2024/03/23 00:11:11;;;;;;;2.00;1.80;;;17.50;99.90;;;;;;5012886;28;20407;-81
2024/03/23 00:13:37;;;;;;;2.80;1.50;;;15.80;99.90;;;;;;5013181;28;20770;-81
2024/03/23 00:16:04;;;;;;;2.50;1.70;;;15.90;99.90;;;;;;5015380;28;20393;-81
2024/03/23 00:18:30;;;;;;;2.73;1.60;;;15.70;99.90;;;;;;5012669;28;20415;-83
2024/03/23 00:20:58;;;;;;;1.80;1.70;;;16.30;99.90;;;;;;5013849;28;20393;-82
2024/03/23 00:23:26;;;;;;;1.90;1.60;;;15.60;99.90;;;;;;5032687;28;21084;-80
2024/03/23 00:25:53;;;;;;;1.60;1.50;;;;;;;;;;5013216;28;20448;-82
2024/03/23 00:28:19;;;;;;;1.70;1.60;;;16.50;99.90;;;;;;4995615;28;20403;-81
2024/03/23 00:30:46;;;;;;;1.90;1.70;;;19.00;99.90;;;;;;5014261;28;20488;-80
2024/03/23 00:33:13;;;;;;;1.88;1.50;;;16.10;99.90;;;;;;5013968;28;20385;-82
2024/03/23 00:35:40;;;;;;;2.20;1.70;;;15.80;99.90;;;;;;4981303;28;20420;-80
2024/03/23 00:38:07;;;;;;;2.20;1.67;;;15.90;99.90;;;;;;5029578;28;20391;-82
2024/03/23 00:40:33;;;;;;;2.83;2.00;;;16.50;99.90;;;;;;5017870;28;20931;-81
2024/03/23 00:43:00;;;;;;;2.55;1.70;;;17.40;99.90;;;;;;4998751;28;20395;-78
2024/03/23 00:45:26;;;;;;;2.30;1.53;;;16.10;99.90;;;;;;5014385;28;20423;-80
2024/03/23 00:47:53;;;;;;;1.85;1.70;;;16.40;99.90;;;;;;5014703;28;20406;-82
2024/03/23 00:50:19;;;;;;;3.10;1.87;;;16.20;99.90;;;;;;4986633;28;20387;-81
2024/03/23 00:52:46;;;;;;;2.70;1.90;;;;;;;;;;5003499;28;20394;-83
2024/03/23 00:55:12;;;;;;;2.33;1.70;;;;;;;;;;5016570;28;20395;-82
2024/03/23 00:57:38;;;;;;;2.70;1.90;;;16.30;99.90;;;;;;5023519;28;20449;-81
2024/03/23 01:00:05;;;;;;;1.80;1.60;;;16.00;99.90;;;;;;5015884;28;20420;-81
2024/03/23 01:02:34;;;;;;;4.45;1.80;;;16.40;99.90;;;;;;5015418;28;20553;-82
2024/03/23 01:05:00;;;;;;;3.72;1.77;;;15.90;99.90;;;;;;5034094;28;20417;-82
2024/03/23 01:07:25;;;;;;;1.98;1.85;;;16.60;99.90;;;;;;5026951;28;20397;-82
2024/03/23 01:09:53;;;;;;;2.03;1.70;;;;;;;;;;5022122;28;20833;-82
2024/03/23 01:12:18;;;;;;;3.40;1.80;;;16.80;99.90;;;;;;5018505;28;20376;-85
2024/03/23 01:14:44;;;;;;;2.40;1.80;;;16.10;99.90;;;;;;5021858;28;20392;-79
2024/03/23 01:17:09;;;;;;;2.30;1.97;;;16.60;99.90;;;;;;5013280;28;20382;-82
2024/03/23 01:19:35;;;;;;;2.50;1.93;;;16.50;99.90;;;;;;5011182;28;20424;-82
2024/03/23 01:22:01;;;;;;;2.03;1.83;;;;;;;;;;5002873;28;20430;-82
2024/03/23 01:24:26;;;;;;;2.33;1.90;;;15.90;99.90;;;;;;5022510;28;20504;-81
2024/03/23 01:26:52;;;;;;;4.70;2.30;;;16.70;99.90;;;;;;4999885;28;20417;-82
2024/03/23 01:29:17;;;;;;;2.20;2.00;;;16.80;99.90;;;;;;5001505;28;20396;-81
2024/03/23 01:31:45;;;;;;;3.53;2.30;;;16.10;99.90;;;;;;5018516;28;20393;-83
2024/03/23 01:34:11;;;;;;;2.40;2.00;;;16.50;99.90;;;;;;5038128;28;20478;-82
2024/03/23 01:36:36;;;;;;;2.20;2.00;;;16.10;99.90;;;;;;5012517;28;20427;-82
2024/03/23 01:39:02;;;;;;;2.50;2.10;;;16.50;99.90;;;;;;5004447;28;20697;-83
2024/03/23 01:41:28;;;;;;;2.42;2.22;;;16.50;99.90;;;;;;5031778;28;20454;-81
2024/03/23 01:43:55;;;;;;;2.60;1.90;;;16.70;99.90;;;;;;5038794;28;20416;-80
2024/03/23 01:46:20;;;;;;;2.50;2.10;;;16.50;99.90;;;;;;5016522;28;20407;-82
2024/03/23 01:48:46;;;;;;;2.73;1.70;;;16.80;99.90;;;;;;5013565;28;20406;-81
2024/03/23 01:51:13;;;;;;;3.63;2.30;;;16.20;99.90;;;;;;5018869;28;20392;-81
2024/03/23 01:53:38;;;;;;;2.40;2.20;;;16.20;99.90;;;;;;5008319;28;20385;-81
2024/03/23 01:56:04;;;;;;;3.40;2.20;;;;;;;;;;5022470;28;20933;-81
2024/03/23 01:58:30;;;;;;;2.88;2.38;;;;;;;;;;5003074;28;20495;-81
2024/03/23 02:00:57;;;;;;;4.50;2.30;;;16.10;99.90;;;;;;5001059;28;20417;-80
2024/03/23 02:03:27;;;;;;;2.10;1.80;;;15.70;99.90;;;;;;5018058;28;20405;-84
2024/03/23 02:05:56;;;;;;;2.55;1.80;;;16.20;99.90;;;;;;5013773;28;20476;-80
2024/03/23 02:08:22;;;;;;;3.42;2.20;;;15.90;99.90;;;;;;5005487;28;20412;-82
2024/03/23 02:10:49;;;;;;;2.55;2.10;;;15.80;99.90;;;;;;5016295;28;20438;-81
2024/03/23 02:13:16;;;;;;;2.10;1.90;;;;;;;;;;5012253;28;20400;-83
2024/03/23 02:15:41;;;;;;;3.45;2.15;;;16.10;99.90;;;;;;5024898;28;20389;-82
2024/03/23 02:18:08;;;;;;;1.90;1.70;;;15.30;99.90;;;;;;4998937;28;20397;-83
2024/03/23 02:20:34;;;;;;;2.30;2.10;;;15.60;99.90;;;;;;5017498;28;20474;-82
2024/03/23 02:23:00;;;;;;;2.70;2.43;;;15.90;99.90;;;;;;5017239;28;20405;-81
2024/03/23 02:25:26;;;;;;;2.30;2.10;;;16.20;99.90;;;;;;5017293;28;20407;-82
2024/03/23 02:27:53;;;;;;;4.10;1.90;;;15.60;99.90;;;;;;5016716;28;20910;-78
2024/03/23 02:30:19;;;;;;;3.30;2.08;;;15.90;99.90;;;;;;5020693;28;20397;-81
2024/03/23 02:32:45;;;;;;;5.90;2.22;;;15.90;99.90;;;;;;5022778;28;20845;-82
2024/03/23 02:35:11;;;;;;;2.50;2.30;;;;;;;;;;5001010;28;20470;-81
2024/03/23 02:37:36;;;;;;;2.10;1.90;;;15.50;99.90;;;;;;5019227;28;20387;-82
2024/03/23 02:40:03;;;;;;;3.37;2.30;;;;;;;;;;5018100;28;20399;-83
2024/03/23 02:42:28;;;;;;;3.00;2.40;;;14.90;99.90;;;;;;4999249;28;20471;-81
2024/03/23 02:44:54;;;;;;;2.03;1.93;;;15.30;99.90;;;;;;5018630;28;20399;-80
2024/03/23 02:47:20;;;;;;;2.60;2.03;;;15.10;99.90;;;;;;5017858;28;22214;-82
2024/03/23 02:49:45;;;;;;;2.97;2.25;;;15.20;99.90;;;;;;5014605;28;20400;-81
2024/03/23 02:52:11;;;;;;;3.53;2.30;;;15.90;99.90;;;;;;5036231;28;20379;-81
2024/03/23 02:54:36;;;;;;;4.33;2.30;;;15.40;99.90;;;;;;5052070;28;20399;-79
2024/03/23 02:57:02;;;;;;;2.50;2.30;;;15.20;99.90;;;;;;5032563;28;20719;-80
2024/03/23 02:59:28;;;;;;;3.85;2.40;;;15.00;99.90;;;;;;5039291;28;20397;-80
2024/03/23 03:01:53;;;;;;;2.20;2.00;;;14.90;99.90;;;;;;5026419;28;20422;-82
2024/03/23 03:04:19;;;;;;;5.20;2.78;;;;;;;;;;5020639;28;20418;-82
2024/03/23 03:06:49;;;;;;;3.20;2.03;;;15.40;99.90;;;;;;5021520;28;20559;-82
2024/03/23 03:09:14;;;;;;;3.07;2.30;;;15.00;99.90;;;;;;5038578;23;21096;-79
2024/03/23 03:11:40;;;;;;;2.67;2.10;;;14.80;99.90;;;;;;5000632;28;20410;-80
2024/03/23 03:14:07;;;;;;;2.67;2.10;;;14.90;99.90;;;;;;5003066;28;20422;-80
2024/03/23 03:16:32;;;;;;;2.80;2.20;;;15.60;99.90;;;;;;5002091;28;21033;-79
2024/03/23 03:18:58;;;;;;;3.17;2.45;;;14.70;99.90;;;;;;5032906;28;20418;-80
2024/03/23 03:21:23;;;;;;;3.20;2.20;;;15.40;99.90;;;;;;5015211;28;20469;-80
2024/03/23 03:23:50;;;;;;;2.90;2.40;;;15.50;99.90;;;;;;5032222;28;21056;-80
2024/03/23 03:26:16;;;;;;;3.10;2.30;;;15.30;99.90;;;;;;5018144;28;20419;-80
2024/03/23 03:28:48;;;;;;;3.28;2.30;;;15.80;99.90;;;;;;5000621;28;20477;-80
2024/03/23 03:31:16;;;;;;;2.80;2.40;;;16.90;99.90;;;;;;5021478;28;20383;-80
2024/03/23 03:33:42;;;;;;;2.70;2.50;;;15.60;99.90;;;;;;5003731;28;20480;-80
2024/03/23 03:36:08;;;;;;;3.00;2.63;;;15.90;99.90;;;;;;5028524;28;20419;-80
2024/03/23 03:38:38;;;;;;;3.50;2.27;;;15.70;99.90;;;;;;5006802;28;20397;-80
2024/03/23 03:41:04;;;;;;;2.75;1.85;;;15.70;99.90;;;;;;4997483;28;20393;-79
2024/03/23 03:43:30;;;;;;;2.53;2.33;;;;;;;;;;4997899;28;20471;-79
2024/03/23 03:45:56;;;;;;;2.53;2.33;;;15.00;99.90;;;;;;5011755;28;20946;-80
2024/03/23 03:48:22;;;;;;;3.38;2.30;;;15.30;99.90;;;;;;5022256;28;20402;-81
2024/03/23 03:50:48;;;;;;;2.45;2.25;;;14.70;99.90;;;;;;5019573;28;20395;-80
2024/03/23 03:53:14;;;;;;;3.80;2.53;;;14.60;99.90;;;;;;5003215;28;20414;-76
2024/03/23 03:55:39;;;;;;;4.93;2.40;;;15.60;99.90;;;;;;5016709;28;20875;-81
2024/03/23 03:58:05;;;;;;;2.90;1.90;;;;;;;;;;5017644;28;20911;-78
2024/03/23 04:00:31;;;;;;;2.72;2.40;;;14.70;99.90;;;;;;5016599;28;20395;-80
2024/03/23 04:02:57;;;;;;;3.73;2.57;;;14.20;99.90;;;;;;5012602;28;20405;-81
2024/03/23 04:05:23;;;;;;;3.10;2.80;;;14.40;99.90;;;;;;5002864;28;20414;-80
2024/03/23 04:07:48;;;;;;;3.40;2.80;;;14.30;99.90;;;;;;5014348;28;20819;-80
2024/03/23 04:10:14;;;;;;;5.13;2.70;;;14.10;99.90;;;;;;5034848;28;20439;-78
2024/03/23 04:12:41;;;;;;;2.60;2.40;;;;;;;;;;5024309;28;20387;-77
2024/03/23 04:15:07;;;;;;;3.00;2.70;;;13.70;99.90;;;;;;5023871;28;20494;-77
2024/03/23 04:17:34;;;;;;;4.35;2.47;;;;;;;;;;5016932;28;20423;-79
2024/03/23 04:20:01;;;;;;;3.78;2.53;;;14.30;99.90;;;;;;5016366;28;20748;-80
2024/03/23 04:22:26;;;;;;;3.08;2.78;;;14.60;99.90;;;;;;4997034;28;20392;-79
2024/03/23 04:24:56;;;;;;;3.25;2.65;;;14.70;99.90;;;;;;5014938;28;20403;-78
2024/03/23 04:27:25;;;;;;;5.07;2.92;;;14.50;99.90;;;;;;4998100;28;20411;-78
2024/03/23 04:29:51;;;;;;;3.60;3.00;;;;;;;;;;4999986;28;20453;-80
2024/03/23 04:32:17;;;;;;;4.47;2.90;;;;;;;;;;5003091;28;20970;-80
2024/03/23 04:34:43;;;;;;;3.50;2.95;;;14.00;99.90;;;;;;5034821;28;20459;-78
2024/03/23 04:37:09;;;;;;;3.20;2.90;;;;;;;;;;5024886;28;20421;-80
2024/03/23 04:39:38;;;;;;;4.85;2.85;;;14.20;99.90;;;;;;5019188;28;20399;-78
2024/03/23 04:42:04;;;;;;;4.70;3.10;;;13.70;99.90;;;;;;5025131;28;20398;-81
2024/03/23 04:44:30;;;;;;;4.00;3.15;;;14.00;99.90;;;;;;5027683;28;20406;-78
2024/03/23 04:46:56;;;;;;;3.30;3.00;;;;;;;;;;5027780;28;20401;-79
2024/03/23 04:49:22;;;;;;;3.65;2.90;;;;;;;;;;5029603;28;20470;-82
2024/03/23 04:51:48;;;;;;;3.47;3.17;;;14.60;99.90;;;;;;5007024;28;20473;-82
2024/03/23 04:54:14;;;;;;;3.57;3.27;;;14.00;99.90;;;;;;5035036;28;20402;-81
2024/03/23 04:56:40;;;;;;;4.03;3.70;;;14.10;99.90;;;;;;5017789;28;20410;-79
2024/03/23 04:59:05;;;;;;;5.57;4.13;;;13.60;99.90;;;;;;5023439;28;20417;-80
2024/03/23 05:01:33;;;;;;;5.78;3.90;;;13.30;99.90;;;;;;5020535;28;20406;-81
2024/03/23 05:03:59;;;;;;;6.28;4.50;;;13.40;99.90;;;;;;5018284;28;20399;-80
2024/03/23 05:06:25;;;;;;;4.75;4.30;;;13.50;99.90;;;;;;5020645;28;20414;-77
2024/03/23 05:08:51;;;;;;;5.40;4.20;;;13.30;99.90;;;;;;5031137;28;20430;-81
2024/03/23 05:11:17;;;;;;;5.80;4.37;;;13.10;99.90;;;;;;5037012;28;20389;-80
2024/03/23 05:13:44;;;;;;;4.50;4.10;;;12.80;99.90;;;;;;5075524;28;20409;-80
2024/03/23 05:16:10;;;;;;;7.07;4.70;;;;;;;;;;5065992;28;20379;-78
2024/03/23 05:18:35;;;;;;;4.97;4.07;;;13.40;99.90;;;;;;5055026;28;20379;-78
2024/03/23 05:21:01;;;;;;;6.10;3.80;;;13.00;99.90;;;;;;5031861;28;21191;-78
2024/03/23 05:23:29;;;;;;;4.15;3.75;;;13.00;99.90;;;;;;5032066;28;20391;-81
2024/03/23 05:25:54;;;;;;;4.47;4.07;;;12.70;99.90;;;;;;5006859;28;20416;-79
2024/03/23 05:28:21;;;;;;;4.80;4.40;;;12.40;99.90;;;;;;5007490;28;20387;-78
2024/03/23 05:30:53;;;;;;;5.20;4.70;;;;;;;;;;5017599;28;20763;-77
2024/03/23 05:33:19;;;;;;;4.70;3.78;;;12.40;99.90;;;;;;4998860;28;20390;-81
2024/03/23 05:35:45;;;;;;;4.47;4.07;;;12.40;99.90;;;;;;5002274;28;20399;-78
2024/03/23 05:38:11;;;;;;;4.30;3.80;;;;;;;;;;5003596;28;20431;-81
2024/03/23 05:40:39;;;;;;;4.40;3.70;;;12.60;99.90;;;;;;5033434;28;20390;-81
2024/03/23 05:43:06;;;;;;;4.30;3.90;;;12.40;99.90;;;;;;5027029;28;20391;-81
2024/03/23 05:45:31;;;;;;;7.00;3.80;;;12.10;99.90;;;;;;5032579;28;20429;-80
2024/03/23 05:47:57;;;;;;;4.93;4.40;;;12.00;99.90;;;;;;5015150;28;20763;-80
2024/03/23 05:50:23;;;;;;;4.38;3.97;;;12.50;99.90;;;;;;5004070;28;20395;-80
2024/03/23 05:52:49;;;;;;;4.20;3.80;;;12.30;99.90;;;;;;5017163;28;20406;-80
2024/03/23 05:55:15;;;;;;;4.05;3.55;;;12.10;99.90;;;;;;4998442;28;20779;-80
2024/03/23 05:57:41;;;;;;;5.23;4.20;;;12.00;99.90;;;;;;5000816;28;20404;-81
2024/03/23 06:00:15;;;;;;;4.37;3.97;;;;;;;;;;5016347;28;20497;-80
2024/03/23 06:02:41;;;;;;;4.07;3.78;;;;;;;;;;5026375;28;20497;-81
2024/03/23 06:05:07;;;;;;;5.13;3.70;;;12.50;99.90;;;;;;5030296;28;20391;-82
2024/03/23 06:07:33;;;;;;;4.72;3.65;;;;;;;;;;5032541;28;20885;-79
2024/03/23 06:09:58;;;;;;;4.75;4.25;;;12.10;99.90;;;;;;5001080;28;20385;-79
2024/03/23 06:12:24;;;;;;;6.32;4.72;;;;;;;;;;5017786;28;20430;-80
2024/03/23 06:14:50;;;;;;;5.00;4.30;;;12.10;99.90;;;;;;4999966;28;20415;-80
2024/03/23 06:17:15;;;;;;;4.32;3.92;;;11.50;99.90;;;;;;5005596;28;22104;-83
2024/03/23 06:19:41;;;;;;;3.53;2.90;;;;;;;;;;5018735;28;20379;-81
2024/03/23 06:22:07;;;;;;;3.33;2.55;;;;;;;;;;5021715;28;20386;-82
2024/03/23 06:24:33;;;;;;;4.20;3.80;;;10.90;99.90;;;;;;5015220;28;20482;-82
2024/03/23 06:26:58;;;;;;;4.20;3.60;;;10.50;99.90;;;;;;5012297;28;20930;-83
2024/03/23 06:29:24;;;;;;;2.80;2.43;;;11.00;99.90;;;;;;5010802;28;20487;-80
2024/03/23 06:31:56;;;;;;;2.40;1.80;;;11.00;99.90;;;;;;5021155;28;20542;-81
2024/03/23 06:34:22;;;;;;;1.80;1.40;;;;;;;;;;5027546;28;21150;-78
2024/03/23 06:36:49;;;;;;;2.35;1.27;;;;;;;;;;5026802;28;20379;-82
2024/03/23 06:39:15;;;;;;;2.00;1.00;;;9.50;99.90;;;;;;5007643;28;20396;-83
2024/03/23 06:41:42;;;;;;;0.95;0.75;;;;;;;;;;5008364;28;20387;-81
2024/03/23 06:44:08;;;;;;;0.80;0.70;;;;;;;;;;5034719;28;20395;-81
2024/03/23 06:46:34;;;;;;;1.60;0.50;;;;;;;;;;5026678;28;20414;-81
2024/03/23 06:49:00;;;;;;;0.50;0.40;;;8.90;99.90;;;;;;5027638;28;20383;-83
2024/03/23 06:51:25;;;;;;;0.50;0.40;;;;;;;;;;5023204;28;20484;-82
2024/03/23 06:53:51;;;;;;;0.50;0.40;;;9.50;99.90;;;;;;5025321;28;20391;-81
2024/03/23 06:56:17;;;;;;;0.60;0.40;;;;;;;;;;5041529;28;20780;-80
2024/03/23 06:58:43;;;;;;;0.50;0.40;;;;;;;;;;5016747;28;20491;-82
2024/03/23 07:01:09;;;;;;;1.38;0.40;;;9.70;99.90;;;;;;5012624;28;20666;-81
2024/03/23 07:03:34;;;;;;;0.50;0.30;;;9.50;99.90;;;;;;5033930;28;20405;-81
2024/03/23 07:06:00;;;;;;;0.60;0.40;;;;;;;;;;5024286;28;20417;-83
2024/03/23 07:08:25;;;;;;;0.70;0.45;;;9.50;99.90;;;;;;5030678;28;20398;-82
2024/03/23 07:10:51;;;;;;;0.80;0.50;;;;;;;;;;5016623;28;20387;-82
2024/03/23 07:13:17;;;;;;;0.50;0.40;;;;;;;;;;5009726;28;20401;-83
2024/03/23 07:15:43;;;;;;;0.90;0.70;;;9.60;99.90;;;;;;5020996;28;20388;-81
2024/03/23 07:18:08;;;;;;;1.30;0.70;;;9.60;99.90;;;;;;5008490;28;20387;-82
2024/03/23 07:20:35;;;;;;;1.10;0.52;;;;;;;;;;5006061;28;20499;-82
2024/03/23 07:23:00;;;;;;;1.10;0.60;;;9.90;99.90;;;;;;5002854;28;20507;-81
2024/03/23 07:25:27;;;;;;;1.70;0.80;;;9.60;99.90;;;;;;5003374;28;20439;-82
2024/03/23 07:27:54;;;;;;;0.40;0.30;;;;;;;;;;5007764;28;20387;-82
2024/03/23 07:30:20;;;;;;;0.57;0.40;;;;;;;;;;5023457;28;20428;-80
2024/03/23 07:32:46;;;;;;;0.75;0.50;;;;;;;;;;5003738;28;20770;-83
2024/03/23 07:35:11;;;;;;;0.63;0.40;;;9.50;99.90;;;;;;5004606;28;20379;-83
2024/03/23 07:37:37;;;;;;;0.70;0.40;;;9.80;99.90;;;;;;5005302;28;20403;-84
2024/03/23 07:40:03;;;;;;;0.68;0.40;;;;;;;;;;5005239;28;20771;-83
2024/03/23 07:42:29;;;;;;;0.60;0.40;;;9.30;99.90;;;;;;5004267;28;20887;-81
2024/03/23 07:44:56;;;;;;;0.60;0.30;;;9.30;99.90;;;;;;5022779;28;20469;-80
2024/03/23 07:47:22;;;;;;;0.50;0.30;;;;;;;;;;5014160;28;20402;-82
2024/03/23 07:49:48;;;;;;;0.60;0.40;;;9.10;99.90;;;;;;5034401;28;20387;-80
2024/03/23 07:52:14;;;;;;;0.70;0.40;;;;;;;;;;5029304;28;20430;-83
2024/03/23 07:54:40;;;;;;;1.30;0.40;;;;;;;;;;5025654;28;20394;-82
2024/03/23 07:57:06;;;;;;;0.77;0.35;;;9.70;99.90;;;;;;5005506;28;20407;-81
2024/03/23 07:59:33;;;;;;;1.00;0.40;;;9.60;99.90;;;;;;5004404;28;20384;-82
2024/03/23 08:01:59;;;;;;;0.70;0.40;;;9.10;99.90;;;;;;5021958;28;20407;-82
2024/03/23 08:04:25;;;;;;;1.00;0.40;;;8.20;99.90;;;;;;5022345;28;20402;-80
2024/03/23 08:06:51;;;;;;;0.80;0.50;;;;;;;;;;5009128;28;20407;-81
2024/03/23 08:09:18;;;;;;;1.35;0.40;;;9.10;99.90;;;;;;5004533;28;20391;-82
2024/03/23 08:11:46;;;;;;;1.40;0.80;;;;;;;;;;5004149;28;20399;-83
2024/03/23 08:14:12;;;;;;;1.35;0.60;;;9.00;99.90;;;;;;5004829;28;20383;-81
2024/03/23 08:16:38;;;;;;;1.90;0.80;;;;;;;;;;5006258;28;20402;-84
2024/03/23 08:19:03;;;;;;;2.78;0.90;;;9.00;99.90;;;;;;5005586;28;20391;-82
2024/03/23 08:21:29;;;;;;;1.20;0.60;;;9.50;99.90;;;;;;5007824;28;20929;-82
2024/03/23 08:23:54;;;;;;;3.00;1.30;;;8.60;99.90;;;;;;5026167;28;20830;-82
2024/03/23 08:26:20;;;;;;;2.40;0.90;;;;;;;;;;5024601;28;20409;-81
2024/03/23 08:28:47;;;;;;;1.70;1.20;;;;;;;;;;5013372;28;20379;-81
2024/03/23 08:31:16;;;;;;;2.00;1.10;;;9.30;99.90;;;;;;5030442;28;20394;-81
2024/03/23 08:33:43;;;;;;;2.85;1.20;;;;;;;;;;5008527;28;20405;-80
2024/03/23 08:36:09;;;;;;;2.33;1.30;;;;;;;;;;5008361;28;20397;-79
2024/03/23 08:38:36;;;;;;;1.42;0.90;;;;;;;;;;5009433;28;20395;-80
2024/03/23 08:41:02;;;;;;;3.50;1.70;;;;;;;;;;5018693;28;20397;-80
2024/03/23 08:43:32;;;;;;;2.90;1.60;;;9.80;99.90;;;;;;5019093;28;20384;-80
2024/03/23 08:46:15;;;;;;;5.20;1.80;;;9.50;99.90;;;;;;5038975;28;20407;-79
2024/03/23 08:48:45;;;;;;;2.50;1.20;;;10.10;99.90;;;;;;5015724;28;20387;-79
2024/03/23 08:51:13;;;;;;;3.58;1.70;;;10.00;99.90;;;;;;5015397;28;20391;-78
2024/03/23 08:53:39;;;;;;;4.25;2.10;;;9.80;99.90;;;;;;5025470;28;20390;-77
2024/03/23 08:56:08;;;;;;;2.60;1.45;;;9.00;99.90;;;;;;5007011;28;20399;-79
2024/03/23 08:58:35;;;;;;;2.67;1.90;;;9.90;99.90;;;;;;5013636;28;20387;-80
2024/03/23 09:01:07;;;;;;;4.55;1.90;;;;;;;;;;5010366;28;20406;-80
2024/03/23 09:03:33;;;;;;;3.72;1.90;;;;;;;;;;5004523;28;20457;-80
2024/03/23 09:06:00;;;;;;;2.83;1.73;;;;;;;;;;5013097;28;21013;-81
2024/03/23 09:08:37;;;;;;;4.15;1.90;;;;;;;;;;5052831;23;20521;-83
2024/03/23 09:11:13;;;;;;;4.10;1.90;;;;;;;;;;5018288;28;20466;-83
2024/03/23 09:13:41;;;;;;;3.30;2.10;;;;;;;;;;5035694;28;20388;-83
2024/03/23 09:16:07;;;;;;;3.65;2.00;;;10.00;99.90;;;;;;5035132;28;20383;-84
2024/03/23 09:18:35;;;;;;;7.20;2.22;;;9.50;99.90;;;;;;5040460;28;20393;-84
2024/03/23 09:21:00;;;;;;;4.03;2.10;;;9.70;99.90;;;;;;5030053;28;20439;-86
2024/03/23 09:23:26;;;;;;;2.88;1.92;;;9.60;99.90;;;;;;5040553;28;20387;-85
2024/03/23 09:25:52;;;;;;;6.95;2.22;;;9.00;99.90;;;;;;5020976;28;20414;-85
2024/03/23 09:28:17;;;;;;;3.20;2.10;;;9.60;99.90;;;;;;5036539;28;20407;-84
2024/03/23 09:30:43;;;;;;;8.57;2.60;;;9.10;99.90;;;;;;5036963;28;20476;-84
2024/03/23 09:33:12;;;;;;;6.00;2.10;;;9.20;99.90;;;;;;5037272;28;20391;-85
2024/03/23 09:35:42;;;;;;;5.13;2.53;;;9.20;99.90;;;;;;5019671;28;20414;-85
2024/03/23 09:38:09;;;;;;;3.85;1.88;;;9.80;99.90;;;;;;5033804;28;20445;-82
2024/03/23 09:40:39;;;;;;;3.40;1.85;;;9.70;99.90;;;;;;5029848;28;21749;-83
2024/03/23 09:43:06;;;;;;;2.47;1.60;;;9.80;99.90;;;;;;5040802;28;20387;-82
2024/03/23 09:45:35;;;;;;;2.53;1.70;;;9.50;99.90;;;;;;5122753;23;20488;-83
2024/03/23 09:48:01;;;;;;;3.60;1.50;;;;;;;;;;5055337;28;20406;-83
2024/03/23 09:50:27;;;;;;;3.17;1.40;;;10.00;99.90;;;;;;5031305;28;20387;-83
2024/03/23 09:52:53;;;;;;;4.25;1.50;;;;;;;;;;5042707;28;20477;-85
2024/03/23 09:55:18;;;;;;;3.38;1.40;;;10.60;99.90;;;;;;5023193;28;20415;-85
2024/03/23 09:57:44;;;;;;;1.95;1.50;;;10.30;99.90;;;;;;5023468;28;20395;-85
2024/03/23 10:00:12;;;;;;;2.80;1.30;;;;;;;;;;5023914;28;20764;-86
2024/03/23 10:02:37;;;;;;;5.00;1.50;;;10.20;99.90;;;;;;5009552;28;20493;-85
2024/03/23 10:05:04;;;;;;;2.93;1.40;;;;;;;;;;5027968;28;21132;-84
2024/03/23 10:07:29;;;;;;;1.50;1.10;;;;;;;;;;5021963;28;20407;-85
2024/03/23 10:09:56;;;;;;;3.20;1.30;;;10.10;99.90;;;;;;5023665;28;20410;-85
2024/03/23 10:12:23;;;;;;;2.10;1.15;;;10.40;99.90;;;;;;5022393;28;20859;-84
2024/03/23 10:14:49;;;;;;;1.63;1.15;;;11.70;99.90;;;;;;5023416;28;20759;-84
2024/03/23 10:17:18;;;;;;;4.35;1.30;;;9.80;99.90;;;;;;5008264;28;20411;-83
2024/03/23 10:19:51;;;;;;;2.80;1.50;;;10.10;99.90;;;;;;5009891;28;20395;-83
2024/03/23 10:22:24;;;;;;;3.28;1.30;;;9.80;99.90;;;;;;5021390;28;21008;-81
2024/03/23 10:24:50;;;;;;;3.80;1.50;;;10.20;99.90;;;;;;5021438;28;20922;-81
2024/03/23 10:27:20;;;;;;;2.63;1.60;;;10.30;99.90;;;;;;5024621;28;20536;-82
2024/03/23 10:29:47;;;;;;;2.00;1.27;;;10.30;99.90;;;;;;5022492;28;20919;-81
2024/03/23 10:32:13;;;;;;;3.10;1.50;;;10.00;99.90;;;;;;5024574;28;20456;-82
2024/03/23 10:34:39;;;;;;;5.57;1.75;;;9.50;99.90;;;;;;5009171;28;20502;-82
2024/03/23 10:37:06;;;;;;;5.35;1.40;;;9.90;99.90;;;;;;5024702;28;20509;-83
2024/03/23 10:39:42;;;;;;;3.58;1.50;;;8.90;99.90;;;;;;5013090;28;20927;-84
2024/03/23 10:42:12;;;;;;;2.90;1.13;;;7.80;99.90;;;;;;5027961;28;20486;-83
2024/03/23 10:44:38;;;;;;;1.90;1.00;;;7.90;99.90;;;;;;5013984;28;20453;-83
2024/03/23 10:47:05;;;;;;;2.67;1.35;;;7.30;99.90;;;;;;5027565;28;20391;-81
2024/03/23 10:49:32;;;;;;;3.42;1.80;;;7.40;99.90;;;;;;5012103;28;20419;-81
2024/03/23 10:51:59;;;;;;;1.90;1.20;;;;;;;;;;5028691;28;20459;-83
2024/03/23 10:54:25;;;;;;;1.88;1.17;;;6.60;99.90;;;;;;5028979;28;20566;-80
2024/03/23 10:56:59;;;;;;;2.17;1.20;;;6.70;99.90;;;;;;5025034;28;20482;-82
2024/03/23 10:59:26;;;;;;;2.33;1.50;;;6.80;99.90;;;;;;5007852;28;20419;-81
2024/03/23 11:01:59;;;;;;;4.13;1.73;;;6.70;99.90;;;;;;5004466;28;20949;-84
2024/03/23 11:04:42;;;;;;;1.42;1.15;;;6.40;99.90;;;;;;5023836;28;20390;-80
2024/03/23 11:07:26;;;;;;;2.33;1.10;;;6.90;99.90;;;;;;5024533;28;20426;-81
2024/03/23 11:09:52;;;;;;;2.83;1.50;;;7.20;99.90;;;;;;5025718;28;20387;-83
2024/03/23 11:12:24;;;;;;;3.38;1.02;;;7.40;99.90;;;;;;5012892;28;20914;-82
2024/03/23 11:14:52;;;;;;;3.13;1.48;;;6.70;99.90;;;;;;5008627;28;20430;-83
2024/03/23 11:17:19;;;;;;;3.75;1.20;;;7.60;99.90;;;;;;5033642;28;20423;-81
2024/03/23 11:19:44;;;;;;;2.78;1.50;;;7.50;99.90;;;;;;5037670;28;20411;-82
2024/03/23 11:22:10;;;;;;;2.92;1.08;;;7.50;99.90;;;;;;5041060;28;20394;-78
2024/03/23 11:24:36;;;;;;;2.88;1.30;;;7.40;99.90;;;;;;5036071;28;20415;-82
2024/03/23 11:27:03;;;;;;;3.73;1.40;;;8.00;99.90;;;;;;5012715;28;20422;-82
2024/03/23 11:29:29;;;;;;;3.55;1.10;;;7.90;99.90;;;;;;5029193;28;20805;-83
2024/03/23 11:31:55;;;;;;;1.40;1.20;;;9.50;99.90;;;;;;5022656;28;20395;-82
2024/03/23 11:34:24;;;;;;;2.30;1.13;;;8.50;99.90;;;;;;5022003;28;20485;-84
2024/03/23 11:37:02;;;;;;;1.88;1.20;;;8.80;99.90;;;;;;5038191;28;20411;-84
2024/03/23 11:39:27;;;;;;;3.78;0.98;;;8.80;99.90;;;;;;5039217;28;20388;-84
2024/03/23 11:41:54;;;;;;;3.70;1.00;;;8.70;99.90;;;;;;5038066;28;20937;-84
2024/03/23 11:44:25;;;;;;;1.42;1.00;;;8.70;99.90;;;;;;5019801;28;20407;-84
2024/03/23 11:46:52;;;;;;;5.80;1.20;;;8.20;99.90;;;;;;5038838;28;20421;-83
2024/03/23 11:49:27;;;;;;;2.00;0.90;;;8.20;99.90;;;;;;5018080;28;20423;-85
2024/03/23 11:51:54;;;;;;;2.20;0.85;;;8.80;99.90;;;;;;5037545;28;20399;-84
2024/03/23 11:54:24;;;;;;;1.55;1.10;;;8.30;99.90;;;;;;5031672;28;20421;-83
2024/03/23 11:56:56;;;;;;;1.83;0.70;;;;;;;;;;5036370;28;20415;-84
2024/03/23 11:59:35;;;;;;;1.23;0.80;;;8.60;99.90;;;;;;5035233;28;20387;-82
2024/03/23 12:02:15;;;;;;;1.00;0.73;;;9.50;99.90;;;;;;5034147;28;20438;-83
2024/03/23 12:04:42;;;;;;;2.27;0.77;;;9.90;99.90;;;;;;5033410;28;20387;-82
2024/03/23 12:07:25;;;;;;;1.25;0.98;;;10.10;99.90;;;;;;5022763;28;20403;-83
2024/03/23 12:10:06;;;;;;;2.03;0.80;;;11.20;99.90;;;;;;5021381;28;20929;-84
2024/03/23 12:12:32;;;;;;;1.02;0.68;;;;;;;;;;5029346;28;20799;-83
2024/03/23 12:15:08;;;;;;;1.40;0.80;;;13.10;99.90;;;;;;5015274;28;20489;-85
2024/03/23 12:17:34;;;;;;;2.22;1.23;;;;;;;;;;5022800;28;20404;-84
2024/03/23 12:20:00;;;;;;;1.55;0.90;;;12.60;99.90;;;;;;5020860;28;20422;-83
2024/03/23 12:22:26;;;;;;;2.10;0.70;;;11.80;99.90;;;;;;5038422;28;20401;-84
2024/03/23 12:24:52;;;;;;;2.50;1.27;;;11.20;99.90;;;;;;5031001;28;20426;-80
2024/03/23 12:27:18;;;;;;;2.40;0.90;;;11.80;99.90;;;;;;5031348;28;20383;-79
2024/03/23 12:29:47;;;;;;;3.08;1.30;;;11.90;99.90;;;;;;5027720;28;20417;-81
2024/03/23 12:32:14;;;;;;;2.23;1.23;;;11.50;99.90;;;;;;5028211;28;21095;-80
2024/03/23 12:34:41;;;;;;;3.20;1.30;;;;;;;;;;5028882;28;20425;-85
2024/03/23 12:37:06;;;;;;;2.85;1.48;;;10.20;99.90;;;;;;5028164;28;20472;-83
2024/03/23 12:39:32;;;;;;;4.03;1.40;;;;;;;;;;5011468;28;20768;-86
2024/03/23 12:41:58;;;;;;;3.08;1.50;;;11.70;99.90;;;;;;5013360;28;20394;-84
2024/03/23 12:44:23;;;;;;;2.50;1.20;;;12.10;99.90;;;;;;5034207;28;20897;-84
2024/03/23 12:46:49;;;;;;;3.27;1.40;;;13.30;99.90;;;;;;5012702;28;21002;-83
2024/03/23 12:49:15;;;;;;;2.10;1.30;;;12.30;99.90;;;;;;5034612;28;20460;-80
2024/03/23 12:51:48;;;;;;;2.85;1.27;;;12.40;99.90;;;;;;5042739;28;20426;-86
2024/03/23 12:54:14;;;;;;;1.80;1.30;;;;;;;;;;5028947;28;20398;-85
2024/03/23 12:56:39;;;;;;;2.80;1.40;;;10.60;99.90;;;;;;5026503;28;20434;-84
2024/03/23 12:59:05;;;;;;;4.53;1.43;;;10.30;99.90;;;;;;5046137;28;20402;-83
2024/03/23 13:01:31;;;;;;;3.40;1.45;;;;;;;;;;5041535;28;20763;-84
2024/03/23 13:03:56;;;;;;;4.90;1.60;;;9.90;99.90;;;;;;5027114;28;20394;-84
2024/03/23 13:06:22;;;;;;;3.08;0.93;;;;;;;;;;5056703;28;20455;-86
2024/03/23 13:08:49;;;;;;;3.55;1.42;;;10.30;99.90;;;;;;5056023;28;20410;-82
2024/03/23 13:11:15;;;;;;;5.03;1.60;;;10.30;99.90;;;;;;5055873;28;20398;-85
2024/03/23 13:13:44;;;;;;;2.80;1.40;;;10.60;99.90;;;;;;5043930;28;20422;-83